createdAt,value
2018-04-08T00:01:56.748Z,7.03
2018-04-08T00:04:24.268Z,6.80
2018-04-08T00:09:33.252Z,6.33
2018-04-08T00:12:01.637Z,6.03
2018-04-08T00:14:29.207Z,6.53
2018-04-08T00:16:56.761Z,5.53
2018-04-08T00:19:24.310Z,5.07
2018-04-08T00:21:51.850Z,5.33
2018-04-08T00:24:20.820Z,5.70
2018-04-08T00:26:48.860Z,5.37
2018-04-08T00:29:16.460Z,5.50
2018-04-08T00:31:45.654Z,5.33
2018-04-08T00:34:14.001Z,5.77
2018-04-08T00:36:42.491Z,5.30
2018-04-08T00:39:11.077Z,6.40
2018-04-08T00:41:38.682Z,6.10
2018-04-08T00:44:06.218Z,7.00
2018-04-08T00:46:33.830Z,5.87
2018-04-08T00:49:01.475Z,6.37
2018-04-08T00:51:30.741Z,5.80
2018-04-08T00:54:22.476Z,5.30
2018-04-08T00:56:50.809Z,4.80
2018-04-08T00:59:19.355Z,4.97
2018-04-08T01:01:47.794Z,4.27
2018-04-08T01:04:15.304Z,5.30
2018-04-08T01:06:43.565Z,6.27
2018-04-08T01:09:11.148Z,5.77
2018-04-08T01:11:38.750Z,5.10
2018-04-08T01:14:06.429Z,5.10
2018-04-08T01:16:34.081Z,6.03
2018-04-08T01:19:02.598Z,6.70
2018-04-08T01:21:33.153Z,5.63
2018-04-08T01:24:00.736Z,6.13
2018-04-08T01:26:29.632Z,6.20
2018-04-08T01:28:57.914Z,5.87
2018-04-08T01:31:25.490Z,6.70
2018-04-08T01:33:54.041Z,5.57
2018-04-08T01:36:21.609Z,5.70
2018-04-08T01:38:49.905Z,6.03
2018-04-08T01:41:17.429Z,4.50
2018-04-08T01:43:45.014Z,5.00
2018-04-08T01:46:13.456Z,5.80
2018-04-08T01:48:40.998Z,4.67
2018-04-08T01:51:09.981Z,5.03
2018-04-08T01:53:37.561Z,5.67
2018-04-08T01:56:26.450Z,5.77
2018-04-08T01:58:54.010Z,4.67
2018-04-08T02:04:03.323Z,5.03
2018-04-08T02:06:32.578Z,4.90
2018-04-08T02:09:00.130Z,4.77
2018-04-08T02:11:27.896Z,4.93
2018-04-08T02:13:55.433Z,5.20
2018-04-08T02:16:23.071Z,5.50
2018-04-08T02:18:50.649Z,5.50
2018-04-08T02:21:18.947Z,6.53
2018-04-08T02:23:46.562Z,6.40
2018-04-08T02:26:14.140Z,5.87
2018-04-08T02:28:41.809Z,6.27
2018-04-08T02:31:10.145Z,6.83
2018-04-08T02:33:38.420Z,8.30
2018-04-08T02:36:25.223Z,8.60
2018-04-08T02:41:51.251Z,5.10
2018-04-08T02:44:18.797Z,5.30
2018-04-08T02:46:47.076Z,5.30
2018-04-08T02:49:34.127Z,5.13
2018-04-08T02:52:02.602Z,5.17
2018-04-08T02:54:30.165Z,5.33
2018-04-08T02:59:39.925Z,3.87
2018-04-08T03:02:07.608Z,4.03
2018-04-08T03:04:35.228Z,4.17
2018-04-08T03:07:02.766Z,4.53
2018-04-08T03:09:31.239Z,4.27
2018-04-08T03:11:59.662Z,4.67
2018-04-08T03:14:46.024Z,4.27
2018-04-08T03:17:14.462Z,4.07
2018-04-08T03:19:43.664Z,4.23
2018-04-08T03:22:11.229Z,3.93
2018-04-08T03:24:38.793Z,3.93
2018-04-08T03:27:06.303Z,3.90
2018-04-08T03:29:33.834Z,3.43
2018-04-08T03:32:01.375Z,4.03
2018-04-08T03:34:29.650Z,3.53
2018-04-08T03:36:58.044Z,3.93
2018-04-08T03:39:45.312Z,4.13
2018-04-08T03:42:14.765Z,3.90
2018-04-08T03:44:43.049Z,4.77
2018-04-08T03:47:11.309Z,4.20
2018-04-08T03:49:39.635Z,4.37
2018-04-08T03:52:08.149Z,4.80
2018-04-08T03:54:36.599Z,4.73
2018-04-08T03:57:04.248Z,4.70
2018-04-08T03:59:32.557Z,4.87
2018-04-08T04:02:00.074Z,4.70
2018-04-08T04:04:28.594Z,5.00
2018-04-08T04:06:56.104Z,5.07
2018-04-08T04:09:23.591Z,4.80
2018-04-08T04:11:51.187Z,5.30
2018-04-08T04:14:19.718Z,5.43
2018-04-08T04:16:47.252Z,5.63
2018-04-08T04:19:26.719Z,6.33
2018-04-08T04:22:18.268Z,5.33
2018-04-08T04:24:55.460Z,5.57
2018-04-08T04:27:23.917Z,5.60
2018-04-08T04:29:52.893Z,5.23
2018-04-08T04:32:21.372Z,5.63
2018-04-08T04:34:48.935Z,5.47
2018-04-08T04:37:16.594Z,6.40
2018-04-08T04:39:44.166Z,5.90
2018-04-08T04:42:11.727Z,5.53
2018-04-08T04:44:40.214Z,5.60
2018-04-08T04:47:08.713Z,6.37
2018-04-08T04:49:54.814Z,6.10
2018-04-08T04:52:22.361Z,6.17
2018-04-08T04:54:50.862Z,5.57
2018-04-08T04:57:18.375Z,5.67
2018-04-08T05:02:25.599Z,5.43
2018-04-08T05:04:54.145Z,5.10
2018-04-08T05:07:22.508Z,4.53
2018-04-08T05:09:50.111Z,5.20
2018-04-08T05:12:17.670Z,5.50
2018-04-08T05:14:45.262Z,5.20
2018-04-08T05:17:12.861Z,5.20
2018-04-08T05:19:40.378Z,5.17
2018-04-08T05:22:07.918Z,5.27
2018-04-08T05:24:36.212Z,4.83
2018-04-08T05:27:04.669Z,5.10
2018-04-08T05:29:32.211Z,4.80
2018-04-08T05:32:19.068Z,5.70
2018-04-08T05:34:46.612Z,5.60
2018-04-08T05:37:14.886Z,5.13
2018-04-08T05:39:43.242Z,6.67
2018-04-08T05:42:10.836Z,5.50
2018-04-08T05:44:39.134Z,5.60
2018-04-08T05:47:07.891Z,5.03
2018-04-08T05:49:35.442Z,5.53
2018-04-08T05:52:03.023Z,5.70
2018-04-08T05:54:32.521Z,6.03
2018-04-08T05:57:01.057Z,5.93
2018-04-08T05:59:31.498Z,5.60
2018-04-08T06:02:00.005Z,6.53
2018-04-08T06:04:31.446Z,6.40
2018-04-08T06:06:58.986Z,6.30
2018-04-08T06:09:27.335Z,6.90
2018-04-08T06:11:54.849Z,6.83
2018-04-08T06:14:22.393Z,6.47
2018-04-08T06:16:50.683Z,7.80
2018-04-08T06:19:19.221Z,6.73
2018-04-08T06:21:48.764Z,7.47
2018-04-08T06:24:17.139Z,8.30
2018-04-08T06:26:45.558Z,7.30
2018-04-08T06:29:13.194Z,7.30
2018-04-08T06:31:40.897Z,6.93
2018-04-08T06:34:12.194Z,8.03
2018-04-08T06:39:40.019Z,7.17
2018-04-08T06:42:07.657Z,7.77
2018-04-08T06:44:35.961Z,7.73
2018-04-08T06:47:03.548Z,7.67
2018-04-08T06:49:31.152Z,7.77
2018-04-08T06:51:58.673Z,7.23
2018-04-08T06:54:27.176Z,7.77
2018-04-08T06:56:54.716Z,7.73
2018-04-08T06:59:22.306Z,8.60
2018-04-08T07:01:49.911Z,7.37
2018-04-08T07:04:18.364Z,8.30
2018-04-08T07:06:46.669Z,7.63
2018-04-08T07:09:14.182Z,7.17
2018-04-08T07:11:41.706Z,7.70
2018-04-08T07:14:12.196Z,7.60
2018-04-08T07:16:40.738Z,6.83
2018-04-08T07:19:09.216Z,8.03
2018-04-08T07:21:37.501Z,6.87
2018-04-08T07:24:05.779Z,6.20
2018-04-08T07:26:34.170Z,6.90
2018-04-08T07:29:01.764Z,7.00
2018-04-08T07:31:31.206Z,7.47
2018-04-08T07:36:57.043Z,8.17
2018-04-08T07:39:24.612Z,9.00
2018-04-08T07:41:53.178Z,9.33
2018-04-08T07:44:20.813Z,11.90
2018-04-08T07:46:48.408Z,10.03
2018-04-08T07:49:16.013Z,10.50
2018-04-08T07:51:44.486Z,12.03
2018-04-08T07:54:12.972Z,12.47
2018-04-08T07:56:40.469Z,12.20
2018-04-08T07:59:08.075Z,13.93
2018-04-08T08:01:37.534Z,14.13
2018-04-08T08:04:05.135Z,14.67
2018-04-08T08:06:33.619Z,13.97
2018-04-08T08:09:01.177Z,14.00
2018-04-08T08:11:28.707Z,14.87
2018-04-08T08:13:57.901Z,14.10
2018-04-08T08:16:26.892Z,14.57
2018-04-08T08:18:54.431Z,13.87
2018-04-08T08:21:23.892Z,13.27
2018-04-08T08:23:51.540Z,13.60
2018-04-08T08:26:19.803Z,13.57
2018-04-08T08:28:47.304Z,13.93
2018-04-08T08:31:14.852Z,14.23
2018-04-08T08:33:44.106Z,14.57
2018-04-08T08:36:11.680Z,14.83
2018-04-08T08:38:57.844Z,14.83
2018-04-08T08:41:25.382Z,14.50
2018-04-08T08:43:53.825Z,15.13
2018-04-08T08:49:00.503Z,13.80
2018-04-08T08:51:29.220Z,14.20
2018-04-08T08:53:57.900Z,14.33
2018-04-08T08:56:25.411Z,14.27
2018-04-08T08:58:52.956Z,13.47
2018-04-08T09:01:20.595Z,14.13
2018-04-08T09:03:48.145Z,14.57
2018-04-08T09:06:15.693Z,14.03
2018-04-08T09:08:44.209Z,15.07
2018-04-08T09:14:11.182Z,14.47
2018-04-08T09:16:39.662Z,14.03
2018-04-08T09:19:10.612Z,14.10
2018-04-08T09:21:59.805Z,13.83
2018-04-08T09:24:28.716Z,13.50
2018-04-08T09:26:57.227Z,13.50
2018-04-08T09:29:24.879Z,14.50
2018-04-08T09:31:52.435Z,14.07
2018-04-08T09:34:20.017Z,14.00
2018-04-08T09:36:47.693Z,14.67
2018-04-08T09:39:17.168Z,15.23
2018-04-08T09:41:46.702Z,15.37
2018-04-08T09:44:14.325Z,15.50
2018-04-08T09:46:42.835Z,15.03
2018-04-08T09:49:11.255Z,15.93
2018-04-08T09:51:38.824Z,15.60
2018-04-08T09:54:06.486Z,16.43
2018-04-08T09:56:34.036Z,15.97
2018-04-08T09:59:03.541Z,15.80
2018-04-08T10:04:51.835Z,16.43
2018-04-08T10:10:20.918Z,15.70
2018-04-08T10:12:49.358Z,15.87
2018-04-08T10:15:17.874Z,15.93
2018-04-08T10:17:45.568Z,15.93
2018-04-08T10:20:13.176Z,16.27
2018-04-08T10:22:40.729Z,16.10
2018-04-08T10:25:08.335Z,15.20
2018-04-08T10:27:36.641Z,16.27
2018-04-08T10:30:04.929Z,16.77
2018-04-08T10:32:34.143Z,15.80
2018-04-08T10:35:01.652Z,16.30
2018-04-08T10:37:30.230Z,15.93
2018-04-08T10:39:57.854Z,15.87
2018-04-08T10:42:44.860Z,14.40
2018-04-08T10:47:53.699Z,15.50
2018-04-08T10:50:23.038Z,15.27
2018-04-08T10:52:50.923Z,15.40
2018-04-08T10:55:18.504Z,15.53
2018-04-08T10:57:46.036Z,15.30
2018-04-08T11:00:13.596Z,14.53
2018-04-08T11:02:41.143Z,15.30
2018-04-08T11:05:09.639Z,14.83
2018-04-08T11:07:55.720Z,15.33
2018-04-08T11:10:24.286Z,14.47
2018-04-08T11:12:51.885Z,14.13
2018-04-08T11:15:20.338Z,14.20
2018-04-08T11:20:27.740Z,13.87
2018-04-08T11:22:55.824Z,13.77
2018-04-08T11:25:42.795Z,14.20
2018-04-08T11:28:10.337Z,14.67
2018-04-08T11:30:37.877Z,14.60
2018-04-08T11:33:05.424Z,13.83
2018-04-08T11:35:33.743Z,14.83
2018-04-08T11:38:01.262Z,14.77
2018-04-08T11:40:28.930Z,14.87
2018-04-08T11:42:56.524Z,15.80
2018-04-08T11:45:24.099Z,14.30
2018-04-08T11:47:51.687Z,15.60
2018-04-08T11:50:19.211Z,14.47
2018-04-08T11:52:48.467Z,14.70
2018-04-08T11:55:16.948Z,14.47
2018-04-08T11:57:44.473Z,13.83
2018-04-08T12:03:13.221Z,15.07
2018-04-08T12:05:40.734Z,14.13
2018-04-08T12:08:08.247Z,13.53
2018-04-08T12:10:37.743Z,14.43
2018-04-08T12:13:05.693Z,15.13
2018-04-08T12:15:33.814Z,14.93
2018-04-08T12:18:02.092Z,13.40
2018-04-08T12:20:31.515Z,13.63
2018-04-08T12:22:59.056Z,13.93
2018-04-08T12:25:26.776Z,15.27
2018-04-08T12:27:54.350Z,14.37
2018-04-08T12:30:21.895Z,15.00
2018-04-08T12:32:49.504Z,15.03
2018-04-08T12:35:17.017Z,16.33
2018-04-08T12:37:45.351Z,15.40
2018-04-08T12:40:12.905Z,14.80
2018-04-08T12:42:40.463Z,14.70
2018-04-08T12:45:09.946Z,13.50
2018-04-08T12:47:38.252Z,15.57
2018-04-08T12:50:05.785Z,14.27
2018-04-08T12:52:34.089Z,15.20
2018-04-08T12:55:03.701Z,14.77
2018-04-08T12:57:31.221Z,15.00
2018-04-08T12:59:59.419Z,14.20
2018-04-08T13:02:28.684Z,13.50
2018-04-08T13:04:56.276Z,13.73
2018-04-08T13:07:26.748Z,13.73
2018-04-08T13:12:53.235Z,13.40
2018-04-08T13:15:21.435Z,12.77
2018-04-08T13:17:50.705Z,13.10
2018-04-08T13:20:19.218Z,13.33
2018-04-08T13:22:46.822Z,11.53
2018-04-08T13:25:15.258Z,11.67
2018-04-08T13:27:42.788Z,11.37
2018-04-08T13:30:29.008Z,9.63
2018-04-08T13:32:56.534Z,9.63
2018-04-08T13:35:24.050Z,10.77
2018-04-08T13:40:31.783Z,10.60
2018-04-08T13:43:01.999Z,11.13
2018-04-08T13:45:30.284Z,10.23
2018-04-08T13:47:58.304Z,10.07
2018-04-08T13:50:26.618Z,9.73
2018-04-08T13:53:14.778Z,10.87
2018-04-08T13:58:22.210Z,10.30
2018-04-08T14:00:49.893Z,10.00
2018-04-08T14:03:17.425Z,9.20
2018-04-08T14:05:46.658Z,10.97
2018-04-08T14:08:14.224Z,9.20
2018-04-08T14:10:43.773Z,10.70
2018-04-08T14:13:13.248Z,10.83
2018-04-08T14:15:40.823Z,10.53
2018-04-08T14:18:08.430Z,10.47
2018-04-08T14:20:35.933Z,9.87
2018-04-08T14:23:04.403Z,4.47
2018-04-08T14:25:31.959Z,4.43
2018-04-08T14:28:00.255Z,4.30
2018-04-08T14:30:45.734Z,4.00
2018-04-08T14:33:14.022Z,4.50
2018-04-08T14:35:41.625Z,3.77
2018-04-08T14:38:09.194Z,3.73
2018-04-08T14:40:38.204Z,3.50
2018-04-08T14:45:47.749Z,4.13
2018-04-08T14:48:15.264Z,3.43
2018-04-08T14:50:42.778Z,4.40
2018-04-08T14:53:11.302Z,4.37
2018-04-08T14:55:38.844Z,4.27
2018-04-08T14:58:07.098Z,4.30
2018-04-08T15:03:32.929Z,3.93
2018-04-08T15:06:01.459Z,3.90
2018-04-08T15:11:31.508Z,3.50
2018-04-08T15:14:00.952Z,3.70
2018-04-08T15:16:29.378Z,4.20
2018-04-08T15:18:56.939Z,4.03
2018-04-08T15:21:26.132Z,3.37
2018-04-08T15:23:54.509Z,3.17
2018-04-08T15:26:22.871Z,3.17
2018-04-08T15:28:51.375Z,3.10
2018-04-08T15:31:19.807Z,3.57
2018-04-08T15:33:49.259Z,3.93
2018-04-08T15:36:16.832Z,3.80
2018-04-08T15:38:44.408Z,3.50
2018-04-08T15:41:14.610Z,3.43
2018-04-08T15:43:42.196Z,4.00
2018-04-08T15:46:10.724Z,3.37
2018-04-08T15:48:40.286Z,3.80
2018-04-08T15:51:07.839Z,3.77
2018-04-08T15:53:35.382Z,3.47
2018-04-08T15:56:04.842Z,3.87
2018-04-08T15:58:32.358Z,4.03
2018-04-08T16:00:59.932Z,3.73
2018-04-08T16:03:28.445Z,3.30
2018-04-08T16:05:57.730Z,3.57
2018-04-08T16:08:26.174Z,3.87
2018-04-08T16:10:55.281Z,3.30
2018-04-08T16:13:23.739Z,3.50
2018-04-08T16:15:51.292Z,3.27
2018-04-08T16:18:18.834Z,4.07
2018-04-08T16:20:48.265Z,3.60
2018-04-08T16:23:16.700Z,3.40
2018-04-08T16:25:45.149Z,3.60
2018-04-08T16:28:15.353Z,3.93
2018-04-08T16:30:44.537Z,3.87
2018-04-08T16:36:10.965Z,3.23
2018-04-08T16:38:38.495Z,3.70
2018-04-08T16:41:05.995Z,3.37
2018-04-08T16:43:33.565Z,3.77
2018-04-08T16:46:01.112Z,3.37
2018-04-08T16:48:28.628Z,3.67
2018-04-08T16:50:59.041Z,3.67
2018-04-08T16:53:54.040Z,3.50
2018-04-08T16:59:12.876Z,4.10
2018-04-08T17:01:40.399Z,3.30
2018-04-08T17:04:08.769Z,3.77
2018-04-08T17:06:36.334Z,3.53
2018-04-08T17:09:03.978Z,3.60
2018-04-08T17:11:31.533Z,3.27
2018-04-08T17:13:59.092Z,4.20
2018-04-08T17:16:26.706Z,3.20
2018-04-08T17:18:54.220Z,3.73
2018-04-08T17:21:21.814Z,3.47
2018-04-08T17:23:50.159Z,3.40
2018-04-08T17:26:18.677Z,3.80
2018-04-08T17:28:46.230Z,3.50
2018-04-08T17:31:13.744Z,4.33
2018-04-08T17:33:41.377Z,3.70
2018-04-08T17:36:09.790Z,3.60
2018-04-08T17:38:37.347Z,3.90
2018-04-08T17:41:04.958Z,3.43
2018-04-08T17:43:32.577Z,3.67
2018-04-08T17:46:00.186Z,3.33
2018-04-08T17:48:27.701Z,3.50
2018-04-08T17:50:55.998Z,3.60
2018-04-08T17:53:23.671Z,3.60
2018-04-08T17:55:51.191Z,3.70
2018-04-08T17:58:18.874Z,4.03
2018-04-08T18:00:46.976Z,3.50
2018-04-08T18:03:14.520Z,3.77
2018-04-08T18:05:42.908Z,3.57
2018-04-08T18:08:10.456Z,4.10
2018-04-08T18:10:38.067Z,3.57
2018-04-08T18:13:05.751Z,3.30
2018-04-08T18:15:33.294Z,3.77
2018-04-08T18:18:00.873Z,3.60
2018-04-08T18:20:29.512Z,3.23
2018-04-08T18:22:57.068Z,3.27
2018-04-08T18:25:24.588Z,3.17
2018-04-08T18:27:53.173Z,3.20
2018-04-08T18:30:20.681Z,3.50
2018-04-08T18:32:48.191Z,3.13
2018-04-08T18:35:15.888Z,3.47
2018-04-08T18:37:43.387Z,2.90
2018-04-08T18:40:10.912Z,2.50
2018-04-08T18:42:38.496Z,3.60
2018-04-08T18:45:06.076Z,2.90
2018-04-08T18:47:33.705Z,3.07
2018-04-08T18:50:01.285Z,3.47
2018-04-08T18:52:28.893Z,3.40
2018-04-08T18:54:57.249Z,3.43
2018-04-08T18:57:24.774Z,3.03
2018-04-08T18:59:52.596Z,3.43
2018-04-08T19:02:20.254Z,2.83
2018-04-08T19:04:47.916Z,3.27
2018-04-08T19:07:15.509Z,3.03
2018-04-08T19:09:43.787Z,3.20
2018-04-08T19:12:12.137Z,2.63
2018-04-08T19:14:46.166Z,2.80
2018-04-08T19:17:19.705Z,2.83
2018-04-08T19:19:47.354Z,2.70
2018-04-08T19:22:16.534Z,2.73
2018-04-08T19:24:44.074Z,2.70
2018-04-08T19:27:17.122Z,2.80
2018-04-08T19:29:45.667Z,2.77
2018-04-08T19:32:13.201Z,2.70
2018-04-08T19:34:40.857Z,2.30
2018-04-08T19:37:08.437Z,2.60
2018-04-08T19:39:35.976Z,2.60
2018-04-08T19:42:03.581Z,3.00
2018-04-08T19:44:31.328Z,2.60
2018-04-08T19:46:58.942Z,2.73
2018-04-08T19:49:26.519Z,2.90
2018-04-08T19:51:56.813Z,2.90
2018-04-08T19:54:24.395Z,2.60
2018-04-08T19:57:10.561Z,2.60
2018-04-08T19:59:38.109Z,2.63
2018-04-08T20:04:47.589Z,3.10
2018-04-08T20:07:16.894Z,2.60
2018-04-08T20:09:46.139Z,2.83
2018-04-08T20:12:31.678Z,2.40
2018-04-08T20:14:59.965Z,2.63
2018-04-08T20:17:27.486Z,2.63
2018-04-08T20:19:56.031Z,2.90
2018-04-08T20:22:23.630Z,2.70
2018-04-08T20:24:51.135Z,2.23
2018-04-08T20:27:19.762Z,2.33
2018-04-08T20:29:47.291Z,2.77
2018-04-08T20:32:14.780Z,2.47
2018-04-08T20:34:42.369Z,2.57
2018-04-08T20:37:09.967Z,2.87
2018-04-08T20:39:38.481Z,3.03
2018-04-08T20:42:06.117Z,2.40
2018-04-08T20:44:33.772Z,2.40
2018-04-08T20:47:02.236Z,2.57
2018-04-08T20:49:29.787Z,2.67
2018-04-08T20:51:57.296Z,2.53
2018-04-08T20:54:24.812Z,2.67
2018-04-08T20:56:52.341Z,2.50
2018-04-08T20:59:19.918Z,3.27
2018-04-08T21:01:48.183Z,2.97
2018-04-08T21:04:16.708Z,3.30
2018-04-08T21:06:45.205Z,2.90
2018-04-08T21:09:12.734Z,2.83
2018-04-08T21:11:41.065Z,3.13
2018-04-08T21:14:08.637Z,2.70
2018-04-08T21:16:36.135Z,2.50
2018-04-08T21:19:03.713Z,3.03
2018-04-08T21:21:49.825Z,2.93
2018-04-08T21:24:18.292Z,2.43
2018-04-08T21:26:45.790Z,3.13
2018-04-08T21:29:13.284Z,2.80
2018-04-08T21:34:32.016Z,2.50
2018-04-08T21:36:59.538Z,2.50
2018-04-08T21:39:27.051Z,3.07
2018-04-08T21:41:54.644Z,2.90
2018-04-08T21:44:23.156Z,3.17
2018-04-08T21:46:50.793Z,3.10
2018-04-08T21:49:18.394Z,2.70
2018-04-08T21:51:46.044Z,2.67
2018-04-08T21:54:13.823Z,2.87
2018-04-08T21:56:41.390Z,2.70
2018-04-08T21:59:09.607Z,2.93
2018-04-08T22:01:37.109Z,3.20
2018-04-08T22:04:04.646Z,3.27
2018-04-08T22:06:32.255Z,2.30
2018-04-08T22:08:59.780Z,2.97
2018-04-08T22:11:27.346Z,3.07
2018-04-08T22:13:54.994Z,3.07
2018-04-08T22:16:22.509Z,2.53
2018-04-08T22:18:50.060Z,3.17
2018-04-08T22:21:17.657Z,2.47
2018-04-08T22:23:45.183Z,2.70
2018-04-08T22:26:13.480Z,2.90
2018-04-08T22:28:41.060Z,2.80
2018-04-08T22:31:08.614Z,3.17
2018-04-08T22:33:36.183Z,2.93
2018-04-08T22:36:03.817Z,3.20
2018-04-08T22:38:31.541Z,3.00
2018-04-08T22:40:59.064Z,2.47
2018-04-08T22:43:27.363Z,2.90
2018-04-08T22:45:54.978Z,2.60
2018-04-08T22:48:22.581Z,3.03
2018-04-08T22:50:50.128Z,3.23
2018-04-08T22:53:17.680Z,2.90
2018-04-08T22:55:45.194Z,3.20
2018-04-08T22:58:12.788Z,2.87
2018-04-08T23:00:40.299Z,2.87
2018-04-08T23:03:08.561Z,2.80
2018-04-08T23:05:36.167Z,2.83
2018-04-08T23:08:03.697Z,2.87
2018-04-08T23:10:31.201Z,3.00
2018-04-08T23:12:58.734Z,2.37
2018-04-08T23:15:27.070Z,2.20
2018-04-08T23:17:55.476Z,2.67
2018-04-08T23:20:23.098Z,2.47
2018-04-08T23:22:50.628Z,2.70
2018-04-08T23:25:18.175Z,2.50
2018-04-08T23:27:46.657Z,2.63
2018-04-08T23:30:15.136Z,2.50
2018-04-08T23:32:42.642Z,2.70
2018-04-08T23:35:10.965Z,2.70
2018-04-08T23:37:38.520Z,2.73
2018-04-08T23:40:06.145Z,3.00
2018-04-08T23:42:33.727Z,2.50
2018-04-08T23:45:01.313Z,2.80
2018-04-08T23:47:28.907Z,2.20
2018-04-08T23:49:57.409Z,2.40
2018-04-08T23:52:24.934Z,3.10
2018-04-08T23:54:52.449Z,2.90
2018-04-08T23:57:20.031Z,2.50
2018-04-08T23:59:47.550Z,2.33
